createdAt,value
2019-01-27T00:00:32.222Z,43.13
2019-01-27T00:03:01.422Z,43.87
2019-01-27T00:05:30.248Z,47.87
2019-01-27T00:07:58.969Z,63.47
2019-01-27T00:10:27.816Z,49.83
2019-01-27T00:12:56.557Z,49.07
2019-01-27T00:15:25.482Z,41.93
2019-01-27T00:17:54.269Z,42.43
2019-01-27T00:20:24.392Z,43.07
2019-01-27T00:22:53.114Z,39.03
2019-01-27T00:25:21.879Z,41.73
2019-01-27T00:27:50.599Z,41.33
2019-01-27T00:30:23.811Z,37.53
2019-01-27T00:32:52.583Z,35.67
2019-01-27T00:35:21.313Z,40.73
2019-01-27T00:37:50.025Z,40.90
2019-01-27T00:40:19.530Z,32.07
2019-01-27T00:42:48.256Z,31.90
2019-01-27T00:45:18.982Z,41.53
2019-01-27T00:47:47.863Z,42.37
2019-01-27T00:50:22.655Z,41.83
2019-01-27T00:52:51.377Z,42.77
2019-01-27T00:55:22.305Z,43.13
2019-01-27T00:57:51.132Z,47.37
2019-01-27T01:00:29.752Z,44.53
2019-01-27T01:02:58.479Z,43.80
2019-01-27T01:05:27.194Z,39.23
2019-01-27T01:07:56.056Z,42.53
2019-01-27T01:10:25.181Z,43.43
2019-01-27T01:12:54.002Z,42.80
2019-01-27T01:15:23.375Z,40.17
2019-01-27T01:17:52.094Z,40.03
2019-01-27T01:20:22.221Z,39.60
2019-01-27T01:22:52.206Z,44.77
2019-01-27T01:25:23.382Z,41.77
2019-01-27T01:27:52.800Z,42.37
2019-01-27T01:30:24.726Z,42.77
2019-01-27T01:32:53.443Z,45.10
2019-01-27T01:35:22.268Z,41.93
2019-01-27T01:37:51.119Z,41.50
2019-01-27T01:40:20.438Z,42.67
2019-01-27T01:42:49.168Z,43.53
2019-01-27T01:45:29.452Z,38.67
2019-01-27T01:47:58.269Z,41.30
2019-01-27T01:50:26.992Z,46.30
2019-01-27T01:52:55.988Z,39.97
2019-01-27T01:55:24.910Z,46.70
2019-01-27T01:57:53.628Z,47.67
2019-01-27T02:00:28.269Z,49.30
2019-01-27T02:02:57.086Z,48.23
2019-01-27T02:05:25.798Z,51.80
2019-01-27T02:07:54.930Z,48.93
2019-01-27T02:10:24.165Z,44.80
2019-01-27T02:12:53.584Z,47.20
2019-01-27T02:15:31.327Z,45.40
2019-01-27T02:18:00.040Z,43.53
2019-01-27T02:20:28.807Z,43.53
2019-01-27T02:22:57.723Z,44.40
2019-01-27T02:25:26.443Z,41.77
2019-01-27T02:27:55.163Z,43.93
2019-01-27T02:30:24.366Z,46.43
2019-01-27T02:32:53.093Z,42.17
2019-01-27T02:35:21.816Z,44.40
2019-01-27T02:37:50.947Z,47.50
2019-01-27T02:40:19.869Z,35.17
2019-01-27T02:42:48.600Z,39.33
2019-01-27T02:45:19.156Z,40.00
2019-01-27T02:47:47.886Z,43.80
2019-01-27T02:50:16.598Z,45.27
2019-01-27T02:52:45.473Z,45.23
2019-01-27T02:55:14.293Z,46.10
2019-01-27T02:57:43.023Z,38.40
2019-01-27T03:00:20.552Z,40.27
2019-01-27T03:02:49.271Z,39.23
2019-01-27T03:05:25.281Z,44.17
2019-01-27T03:07:54.431Z,45.07
2019-01-27T03:10:23.201Z,39.63
2019-01-27T03:12:51.921Z,40.63
2019-01-27T03:15:20.884Z,40.87
2019-01-27T03:17:49.604Z,41.93
2019-01-27T03:20:18.333Z,45.53
2019-01-27T03:22:47.121Z,42.87
2019-01-27T03:25:17.647Z,44.37
2019-01-27T03:27:46.374Z,45.33
2019-01-27T03:30:20.981Z,41.77
2019-01-27T03:32:49.712Z,43.73
2019-01-27T03:35:19.034Z,42.27
2019-01-27T03:37:48.164Z,39.13
2019-01-27T03:40:20.868Z,43.80
2019-01-27T03:42:49.687Z,43.10
2019-01-27T03:45:19.797Z,42.57
2019-01-27T03:47:48.615Z,44.23
2019-01-27T03:50:21.591Z,46.13
2019-01-27T03:52:50.669Z,45.03
2019-01-27T03:55:21.690Z,41.87
2019-01-27T03:57:50.416Z,43.73
2019-01-27T04:00:21.840Z,42.37
2019-01-27T04:02:50.561Z,44.03
2019-01-27T04:05:20.085Z,42.40
2019-01-27T04:07:48.972Z,40.70
2019-01-27T04:10:25.993Z,38.37
2019-01-27T04:12:55.008Z,45.97
2019-01-27T04:15:23.735Z,38.20
2019-01-27T04:17:52.556Z,41.00
2019-01-27T04:20:22.513Z,39.10
2019-01-27T04:22:51.326Z,36.90
2019-01-27T04:25:20.447Z,40.13
2019-01-27T04:27:49.287Z,52.50
2019-01-27T04:30:26.674Z,48.47
2019-01-27T04:32:55.553Z,48.57
2019-01-27T04:35:24.264Z,39.33
2019-01-27T04:37:52.990Z,37.17
2019-01-27T04:40:23.568Z,38.03
2019-01-27T04:42:52.282Z,44.57
2019-01-27T04:45:25.718Z,39.23
2019-01-27T04:47:54.593Z,43.07
2019-01-27T04:50:23.314Z,47.57
2019-01-27T04:52:52.065Z,47.27
2019-01-27T04:55:21.901Z,46.27
2019-01-27T04:57:50.618Z,51.30
2019-01-27T05:00:28.453Z,49.83
2019-01-27T05:03:14.928Z,56.70
2019-01-27T05:05:43.821Z,47.97
2019-01-27T05:08:12.594Z,47.70
2019-01-27T05:10:41.435Z,48.50
2019-01-27T05:13:10.348Z,47.83
2019-01-27T05:15:39.069Z,50.13
2019-01-27T05:18:07.797Z,43.70
2019-01-27T05:20:36.646Z,50.87
2019-01-27T05:23:05.359Z,50.30
2019-01-27T05:25:34.084Z,53.03
2019-01-27T05:28:04.076Z,50.70
2019-01-27T05:30:32.798Z,66.10
2019-01-27T05:33:01.516Z,55.50
2019-01-27T05:35:30.400Z,44.10
2019-01-27T05:37:59.117Z,38.30
2019-01-27T05:40:27.845Z,39.33
2019-01-27T05:42:56.695Z,40.93
2019-01-27T05:45:25.538Z,39.63
2019-01-27T05:47:54.240Z,45.20
2019-01-27T05:50:23.126Z,44.43
2019-01-27T05:52:51.848Z,39.33
2019-01-27T05:55:23.620Z,40.27
2019-01-27T05:57:52.484Z,44.63
2019-01-27T06:00:33.895Z,47.47
2019-01-27T06:03:04.259Z,63.43
2019-01-27T06:05:32.970Z,43.70
2019-01-27T06:08:01.691Z,43.93
2019-01-27T06:10:30.574Z,38.63
2019-01-27T06:12:59.305Z,37.60
2019-01-27T06:15:28.132Z,31.13
2019-01-27T06:17:57.017Z,33.30
2019-01-27T06:20:25.737Z,31.23
2019-01-27T06:22:54.455Z,33.13
2019-01-27T06:25:26.033Z,37.93
2019-01-27T06:27:53.693Z,30.90
2019-01-27T06:30:24.609Z,36.77
2019-01-27T06:32:56.407Z,32.47
2019-01-27T06:35:25.127Z,33.83
2019-01-27T06:37:53.848Z,33.87
2019-01-27T06:40:22.849Z,51.57
2019-01-27T06:42:51.553Z,41.60
2019-01-27T06:45:20.267Z,43.37
2019-01-27T06:47:49.046Z,52.47
2019-01-27T06:50:20.543Z,163.40
2019-01-27T06:52:49.272Z,416.00
2019-01-27T06:55:20.061Z,86.80
2019-01-27T06:57:48.788Z,482.20
2019-01-27T07:00:30.244Z,113.53
2019-01-27T07:03:09.354Z,66.80
2019-01-27T07:05:56.038Z,74.83
2019-01-27T07:08:26.332Z,42.77
2019-01-27T07:11:02.752Z,31.87
2019-01-27T07:13:39.025Z,31.90
2019-01-27T07:16:09.547Z,34.10
2019-01-27T07:18:42.706Z,31.97
2019-01-27T07:21:15.793Z,31.70
2019-01-27T07:24:01.862Z,34.13
2019-01-27T07:26:35.282Z,33.13
2019-01-27T07:29:14.623Z,39.73
2019-01-27T07:31:47.714Z,44.97
2019-01-27T07:34:27.024Z,40.43
2019-01-27T07:37:09.722Z,48.97
2019-01-27T07:39:40.019Z,39.87
2019-01-27T07:42:19.596Z,44.20
2019-01-27T07:44:49.885Z,37.57
2019-01-27T07:47:20.180Z,46.13
2019-01-27T07:49:53.416Z,42.40
2019-01-27T07:52:38.953Z,40.07
2019-01-27T07:55:24.530Z,44.80
2019-01-27T07:57:54.824Z,47.87
2019-01-27T08:00:34.864Z,52.60
2019-01-27T08:03:11.775Z,37.43
2019-01-27T08:05:40.405Z,41.23
2019-01-27T08:08:13.290Z,41.50
2019-01-27T08:10:45.180Z,40.17
2019-01-27T08:13:18.444Z,32.43
2019-01-27T08:15:58.237Z,33.30
2019-01-27T08:18:37.679Z,35.30
2019-01-27T08:21:08.135Z,37.23
2019-01-27T08:23:45.314Z,145.93
2019-01-27T08:26:21.470Z,83.20
2019-01-27T08:29:08.243Z,40.07
2019-01-27T08:31:47.551Z,59.70
2019-01-27T08:34:30.123Z,37.03
2019-01-27T08:37:12.641Z,35.80
2019-01-27T08:39:43.110Z,46.33
2019-01-27T08:42:19.453Z,33.17
2019-01-27T08:44:52.455Z,35.73
2019-01-27T08:47:21.182Z,35.23
2019-01-27T08:49:51.915Z,37.93
2019-01-27T08:52:20.636Z,35.77
2019-01-27T08:54:49.359Z,28.00
2019-01-27T08:57:18.143Z,32.37
2019-01-27T08:59:46.864Z,44.20
2019-01-27T09:02:33.335Z,37.90
2019-01-27T09:05:03.628Z,32.20
2019-01-27T09:07:36.682Z,35.20
2019-01-27T09:10:12.395Z,44.37
2019-01-27T09:12:54.599Z,38.77
2019-01-27T09:15:43.323Z,36.57
2019-01-27T09:18:47.959Z,29.60
2019-01-27T09:21:12.742Z,53.20
2019-01-27T09:23:43.033Z,50.90
2019-01-27T09:26:13.324Z,57.03
2019-01-27T09:28:46.653Z,26.43
2019-01-27T09:31:22.948Z,25.87
2019-01-27T09:33:59.591Z,68.73
2019-01-27T09:36:29.708Z,27.27
2019-01-27T09:39:16.489Z,33.50
2019-01-27T09:41:46.781Z,29.17
2019-01-27T09:44:35.353Z,29.43
2019-01-27T09:47:20.820Z,31.37
2019-01-27T09:49:59.908Z,109.03
2019-01-27T09:52:30.200Z,49.70
2019-01-27T09:55:12.912Z,106.97
2019-01-27T09:57:45.926Z,27.73
2019-01-27T10:00:19.254Z,44.03
2019-01-27T10:02:58.486Z,40.00
2019-01-27T10:05:28.851Z,31.20
2019-01-27T10:08:14.372Z,24.47
2019-01-27T10:11:01.384Z,28.03
2019-01-27T10:13:34.494Z,52.80
2019-01-27T10:16:07.745Z,28.00
2019-01-27T10:18:38.037Z,25.43
2019-01-27T10:21:08.386Z,38.83
2019-01-27T10:23:38.785Z,27.83
2019-01-27T10:26:09.071Z,23.50
2019-01-27T10:28:54.425Z,23.00
2019-01-27T10:31:30.832Z,25.70
2019-01-27T10:34:16.393Z,29.93
2019-01-27T10:36:46.683Z,23.97
2019-01-27T10:39:26.411Z,23.27
2019-01-27T10:42:02.467Z,49.73
2019-01-27T10:44:32.796Z,23.93
2019-01-27T10:47:09.343Z,43.40
2019-01-27T10:49:42.535Z,21.40
2019-01-27T10:52:12.880Z,73.70
2019-01-27T10:54:43.200Z,20.57
2019-01-27T10:57:30.269Z,21.03
2019-01-27T11:00:06.574Z,30.33
2019-01-27T11:02:37.975Z,19.93
2019-01-27T11:05:16.893Z,23.97
2019-01-27T11:07:49.964Z,21.90
2019-01-27T11:10:20.271Z,17.10
2019-01-27T11:12:50.591Z,12.80
2019-01-27T11:15:37.554Z,19.70
2019-01-27T11:18:17.034Z,109.10
2019-01-27T11:20:53.497Z,21.37
2019-01-27T11:23:29.552Z,377.93
2019-01-27T11:26:18.315Z,39.07
2019-01-27T11:28:51.349Z,37.40
2019-01-27T11:31:38.190Z,38.97
2019-01-27T11:34:11.484Z,96.07
2019-01-27T11:36:44.753Z,50.47
2019-01-27T11:39:18.037Z,19.70
2019-01-27T11:41:48.324Z,17.47
2019-01-27T11:44:21.814Z,158.37
2019-01-27T11:47:08.317Z,212.13
2019-01-27T11:49:38.656Z,22.50
2019-01-27T11:52:15.470Z,17.87
2019-01-27T11:54:40.637Z,18.27
2019-01-27T11:57:09.445Z,20.43
2019-01-27T11:59:38.173Z,19.83
2019-01-27T12:02:06.992Z,23.00
2019-01-27T12:04:35.766Z,20.43
2019-01-27T12:07:04.583Z,18.67
2019-01-27T12:09:33.310Z,18.33
2019-01-27T12:12:02.520Z,20.90
2019-01-27T12:14:31.254Z,22.47
2019-01-27T12:16:59.977Z,19.33
2019-01-27T12:19:28.861Z,20.37
2019-01-27T12:21:57.585Z,27.63
2019-01-27T12:24:26.317Z,20.67
2019-01-27T12:26:56.934Z,18.30
2019-01-27T12:29:25.679Z,39.93
2019-01-27T12:31:54.376Z,19.97
2019-01-27T12:34:23.153Z,20.43
2019-01-27T12:36:51.878Z,22.20
2019-01-27T12:39:20.613Z,19.23
2019-01-27T12:41:50.627Z,18.80
2019-01-27T12:44:19.379Z,17.87
2019-01-27T12:46:48.107Z,18.73
2019-01-27T12:49:16.879Z,20.30
2019-01-27T12:51:45.605Z,18.10
2019-01-27T12:54:14.337Z,19.30
2019-01-27T12:56:43.173Z,19.40
2019-01-27T12:59:11.898Z,23.40
2019-01-27T13:01:40.626Z,18.83
2019-01-27T13:04:09.817Z,19.37
2019-01-27T13:06:38.548Z,22.50
2019-01-27T13:09:08.176Z,21.50
2019-01-27T13:11:36.977Z,18.90
2019-01-27T13:14:05.803Z,19.10
2019-01-27T13:16:34.541Z,17.67
2019-01-27T13:19:03.319Z,21.20
2019-01-27T13:21:33.460Z,20.13
2019-01-27T13:24:02.179Z,21.63
2019-01-27T13:26:31.047Z,20.33
2019-01-27T13:28:59.775Z,19.83
2019-01-27T13:31:28.507Z,20.93
2019-01-27T13:33:57.385Z,18.97
2019-01-27T13:36:26.177Z,19.73
2019-01-27T13:38:54.916Z,23.20
2019-01-27T13:41:23.710Z,17.83
2019-01-27T13:43:52.455Z,22.23
2019-01-27T13:46:21.179Z,20.13
2019-01-27T13:48:49.933Z,20.80
2019-01-27T13:51:18.644Z,21.03
2019-01-27T13:53:47.380Z,18.23
2019-01-27T13:56:16.521Z,20.40
2019-01-27T13:58:45.567Z,20.60
2019-01-27T14:01:14.284Z,20.00
2019-01-27T14:03:43.075Z,17.67
2019-01-27T14:06:11.814Z,19.70
2019-01-27T14:08:40.544Z,21.97
2019-01-27T14:11:09.452Z,20.07
2019-01-27T14:13:38.186Z,20.63
2019-01-27T14:16:06.915Z,29.93
2019-01-27T14:21:50.836Z,18.67
2019-01-27T14:24:19.553Z,18.83
2019-01-27T14:26:48.413Z,21.70
2019-01-27T14:29:17.136Z,21.77
2019-01-27T14:31:45.862Z,25.97
2019-01-27T14:34:14.744Z,24.57
2019-01-27T14:36:43.478Z,30.10
2019-01-27T14:39:12.214Z,45.37
2019-01-27T14:41:41.086Z,21.40
2019-01-27T14:44:09.821Z,20.33
2019-01-27T14:46:38.557Z,27.27
2019-01-27T14:49:07.315Z,73.27
2019-01-27T14:51:36.041Z,58.33
2019-01-27T14:54:05.260Z,54.87
2019-01-27T14:56:34.058Z,39.20
2019-01-27T14:59:02.807Z,32.87
2019-01-27T15:01:31.530Z,38.07
2019-01-27T15:04:00.426Z,37.93
2019-01-27T15:06:29.128Z,33.40
2019-01-27T15:08:57.854Z,49.33
2019-01-27T15:11:26.635Z,63.97
2019-01-27T15:13:55.358Z,41.27
2019-01-27T15:16:27.197Z,30.13
2019-01-27T15:18:56.068Z,29.83
2019-01-27T15:21:24.788Z,28.50
2019-01-27T15:23:53.515Z,29.87
2019-01-27T15:26:22.315Z,38.60
2019-01-27T15:28:51.139Z,66.77
2019-01-27T15:31:19.915Z,164.47
2019-01-27T15:33:48.684Z,108.23
2019-01-27T15:36:17.406Z,80.23
2019-01-27T15:38:46.163Z,83.03
2019-01-27T15:41:15.068Z,83.97
2019-01-27T15:43:48.560Z,106.17
2019-01-27T15:46:14.288Z,127.30
2019-01-27T15:48:43.160Z,151.80
2019-01-27T15:51:11.886Z,139.47
2019-01-27T15:53:40.612Z,158.37
2019-01-27T15:56:10.080Z,146.20
2019-01-27T15:58:38.975Z,145.30
2019-01-27T16:01:07.705Z,140.73
2019-01-27T16:03:36.830Z,144.13
2019-01-27T16:06:06.158Z,167.93
2019-01-27T16:08:34.935Z,148.40
2019-01-27T16:11:03.829Z,158.63
2019-01-27T16:13:32.569Z,131.23
2019-01-27T16:16:01.302Z,102.53
2019-01-27T16:18:30.072Z,106.10
2019-01-27T16:20:58.801Z,75.33
2019-01-27T16:23:31.843Z,62.67
2019-01-27T16:26:02.203Z,59.33
2019-01-27T16:28:30.920Z,51.57
2019-01-27T16:31:01.267Z,92.63
2019-01-27T16:33:40.536Z,103.30
2019-01-27T16:36:09.261Z,134.07
2019-01-27T16:38:37.990Z,127.57
2019-01-27T16:41:06.887Z,96.07
2019-01-27T16:43:35.610Z,116.80
2019-01-27T16:46:04.434Z,120.23
2019-01-27T16:48:33.306Z,155.37
2019-01-27T16:51:02.171Z,92.27
2019-01-27T16:53:30.907Z,101.67
2019-01-27T16:55:59.719Z,64.47
2019-01-27T16:58:28.437Z,52.10
2019-01-27T17:00:57.160Z,67.40
2019-01-27T17:03:25.966Z,125.33
2019-01-27T17:05:54.795Z,135.30
2019-01-27T17:08:23.521Z,138.23
2019-01-27T17:10:52.487Z,189.07
2019-01-27T17:13:21.204Z,162.50
2019-01-27T17:15:49.927Z,110.60
2019-01-27T17:18:18.797Z,106.37
2019-01-27T17:20:47.524Z,91.77
2019-01-27T17:23:16.252Z,67.00
2019-01-27T17:25:45.442Z,64.57
2019-01-27T17:28:14.162Z,49.80
2019-01-27T17:30:42.887Z,83.53
2019-01-27T17:33:11.656Z,102.50
2019-01-27T17:35:40.393Z,101.97
2019-01-27T17:38:09.115Z,82.93
2019-01-27T17:40:38.389Z,82.93
2019-01-27T17:43:07.215Z,88.77
2019-01-27T17:45:35.940Z,92.87
2019-01-27T17:48:06.107Z,86.43
2019-01-27T17:50:34.836Z,94.33
2019-01-27T17:53:03.564Z,95.20
2019-01-27T17:55:42.739Z,104.57
2019-01-27T17:58:24.411Z,111.80
2019-01-27T18:01:11.742Z,109.77
2019-01-27T18:03:44.768Z,126.23
2019-01-27T18:06:18.507Z,150.90
2019-01-27T18:08:48.803Z,191.83
2019-01-27T18:11:21.914Z,261.67
2019-01-27T18:13:51.716Z,272.93
2019-01-27T18:16:20.450Z,308.27
2019-01-27T18:18:49.487Z,364.37
2019-01-27T18:21:18.939Z,399.00
2019-01-27T18:23:47.660Z,450.93
2019-01-27T18:26:17.484Z,484.57
2019-01-27T18:28:46.462Z,489.73
2019-01-27T18:31:15.186Z,471.33
2019-01-27T18:33:43.926Z,451.73
2019-01-27T18:36:12.791Z,464.80
2019-01-27T18:38:41.515Z,452.43
2019-01-27T18:41:10.249Z,423.80
2019-01-27T18:43:39.137Z,423.13
2019-01-27T18:46:07.869Z,364.67
2019-01-27T18:48:36.606Z,358.47
2019-01-27T18:51:06.318Z,353.47
2019-01-27T18:53:54.744Z,350.83
2019-01-27T18:56:35.652Z,341.40
2019-01-27T18:59:08.691Z,314.57
2019-01-27T19:01:39.095Z,297.77
2019-01-27T19:04:09.522Z,297.07
2019-01-27T19:06:42.765Z,292.23
2019-01-27T19:09:22.366Z,305.13
2019-01-27T19:11:55.694Z,317.63
2019-01-27T19:14:26.007Z,331.20
2019-01-27T19:16:59.606Z,315.53
2019-01-27T19:19:32.875Z,322.40
2019-01-27T19:22:03.185Z,334.47
2019-01-27T19:24:33.627Z,318.53
2019-01-27T19:27:20.351Z,301.03
2019-01-27T19:29:53.729Z,299.40
2019-01-27T19:32:24.031Z,306.17
2019-01-27T19:34:57.416Z,317.53
2019-01-27T19:37:28.182Z,299.77
2019-01-27T19:40:04.493Z,307.53
2019-01-27T19:42:37.685Z,337.43
2019-01-27T19:45:20.189Z,298.17
2019-01-27T19:47:56.837Z,282.47
2019-01-27T19:50:36.415Z,278.57
2019-01-27T19:53:07.472Z,261.37
2019-01-27T19:55:47.527Z,286.47
2019-01-27T19:58:29.941Z,340.73
2019-01-27T20:01:02.988Z,340.53
2019-01-27T20:03:39.702Z,357.63
2019-01-27T20:06:10.003Z,336.63
2019-01-27T20:08:55.452Z,311.93
2019-01-27T20:11:43.909Z,337.03
2019-01-27T20:14:14.334Z,340.23
2019-01-27T20:16:50.438Z,336.60
2019-01-27T20:19:20.915Z,343.17
2019-01-27T20:21:53.653Z,325.30
2019-01-27T20:24:29.599Z,312.70
2019-01-27T20:27:02.763Z,304.57
2019-01-27T20:29:49.522Z,324.47
2019-01-27T20:32:31.841Z,322.63
2019-01-27T20:35:18.626Z,354.90
2019-01-27T20:38:05.069Z,409.50
2019-01-27T20:40:41.636Z,391.63
2019-01-27T20:43:14.750Z,406.87
2019-01-27T20:45:45.087Z,424.10
2019-01-27T20:48:31.554Z,410.37
2019-01-27T20:51:13.992Z,393.53
2019-01-27T20:53:53.387Z,373.07
2019-01-27T20:56:29.899Z,328.97
2019-01-27T20:59:03.296Z,301.23
2019-01-27T21:01:42.676Z,289.17
2019-01-27T21:04:15.722Z,285.80
2019-01-27T21:06:46.024Z,242.10
2019-01-27T21:09:31.412Z,241.20
2019-01-27T21:12:01.721Z,237.67
2019-01-27T21:14:32.014Z,234.27
2019-01-27T21:17:05.578Z,232.67
2019-01-27T21:19:35.875Z,214.20
2019-01-27T21:22:04.703Z,224.60
2019-01-27T21:24:33.667Z,217.57
2019-01-27T21:27:06.488Z,206.20
2019-01-27T21:29:32.837Z,212.07
2019-01-27T21:32:02.077Z,232.33
2019-01-27T21:34:30.815Z,230.03
2019-01-27T21:36:59.542Z,217.77
2019-01-27T21:39:28.425Z,248.77
2019-01-27T21:41:57.293Z,234.53
2019-01-27T21:44:26.024Z,246.33
2019-01-27T21:46:54.794Z,236.77
2019-01-27T21:49:23.523Z,227.90
2019-01-27T21:51:52.256Z,212.67
2019-01-27T21:54:21.376Z,182.93
2019-01-27T21:56:50.106Z,183.10
2019-01-27T21:59:18.831Z,148.33
2019-01-27T22:01:47.625Z,127.73
2019-01-27T22:04:16.350Z,169.40
2019-01-27T22:06:45.071Z,173.47
2019-01-27T22:09:13.961Z,159.67
2019-01-27T22:11:42.691Z,133.60
2019-01-27T22:14:11.465Z,78.77
2019-01-27T22:16:41.336Z,96.37
2019-01-27T22:19:10.055Z,95.17
2019-01-27T22:21:38.775Z,78.77
2019-01-27T22:24:07.608Z,65.40
2019-01-27T22:26:36.322Z,58.30
2019-01-27T22:29:05.136Z,50.87
2019-01-27T22:31:33.895Z,40.13
2019-01-27T22:34:02.618Z,36.13
2019-01-27T22:36:37.152Z,39.03
2019-01-27T22:39:08.415Z,40.33
2019-01-27T22:41:37.134Z,36.27
2019-01-27T22:44:06.107Z,40.67
2019-01-27T22:46:34.877Z,44.27
2019-01-27T22:49:03.691Z,46.77
2019-01-27T22:51:32.433Z,42.10
2019-01-27T22:54:01.314Z,43.90
2019-01-27T22:56:30.045Z,39.63
2019-01-27T22:58:58.770Z,42.60
2019-01-27T23:01:27.929Z,46.07
2019-01-27T23:03:56.652Z,36.50
2019-01-27T23:06:25.379Z,43.40
2019-01-27T23:08:54.144Z,48.03
2019-01-27T23:11:22.876Z,44.77
2019-01-27T23:13:51.597Z,47.90
2019-01-27T23:16:20.802Z,53.10
2019-01-27T23:18:49.529Z,75.10
2019-01-27T23:21:18.264Z,101.47
2019-01-27T23:23:47.065Z,112.13
2019-01-27T23:26:15.796Z,137.07
2019-01-27T23:28:44.525Z,123.67
2019-01-27T23:31:13.415Z,140.57
2019-01-27T23:33:42.152Z,146.70
2019-01-27T23:36:10.878Z,127.17
2019-01-27T23:38:39.679Z,115.83
2019-01-27T23:41:08.400Z,124.97
2019-01-27T23:43:37.131Z,128.23
2019-01-27T23:46:06.353Z,128.23
2019-01-27T23:48:35.084Z,126.30
2019-01-27T23:51:03.811Z,143.93
2019-01-27T23:53:32.768Z,139.20
2019-01-27T23:56:01.494Z,130.00
2019-01-27T23:58:30.242Z,122.07
